Time;durP1;ratioP1;P1;durP2;ratioP2;P2;SDS_P1;SDS_P2;PMS_P1;PMS_P2;Temp;Humidity;BMP_temperature;BMP_pressure;BME280_temperature;BME280_humidity;BME280_pressure;Samples;Min_cycle;Max_cycle;Signal;HPM_P1;HPM_P2
2021/11/03 00:01:59;;;;;;;5.20;4.70;;;;;;;6.48;81.51;95469.28;1815544;77;21079;-80
2021/11/03 00:04:25;;;;;;;6.22;4.30;;;;;;;6.45;81.69;95472.23;1767627;79;21088;-80
2021/11/03 00:06:51;;;;;;;5.70;4.58;;;;;;;6.45;81.82;95476.59;1770576;79;21078;-80
2021/11/03 00:09:17;;;;;;;6.05;4.62;;;;;;;6.38;81.52;95486.83;1759851;79;21414;-80
2021/11/03 00:11:43;;;;;;;7.75;5.12;;;;;;;6.37;81.74;95489.59;1756153;79;21142;-81
2021/11/03 00:14:08;;;;;;;12.60;7.03;;;;;;;6.41;82.14;95499.38;1764575;79;21201;-80
2021/11/03 00:16:35;;;;;;;5.95;4.97;;;;;;;6.46;82.04;95497.05;1775676;81;21027;-80
2021/11/03 00:19:00;;;;;;;6.08;5.47;;;;;;;6.48;82.54;95492.52;1784648;79;21488;-80
2021/11/03 00:21:26;;;;;;;18.82;8.03;;;;;;;6.50;82.62;95491.84;1775834;79;21394;-80
2021/11/03 00:23:52;;;;;;;9.80;5.33;;;;;;;6.55;82.60;95489.55;1777833;79;21036;-80
2021/11/03 00:26:18;;;;;;;4.65;4.25;;;;;;;6.61;82.66;95493.19;1775413;80;21126;-80
2021/11/03 00:28:45;;;;;;;5.72;5.20;;;;;;;6.67;82.66;95500.23;1763034;79;21082;-80
2021/11/03 00:31:10;;;;;;;5.55;4.70;;;;;;;6.71;82.29;95496.31;1750325;80;21062;-80
2021/11/03 00:33:36;;;;;;;5.55;5.00;;;;;;;6.73;82.24;95498.71;1771891;79;21035;-80
2021/11/03 00:36:02;;;;;;;7.22;4.00;;;;;;;6.76;82.08;95493.19;1799259;78;21405;-80
2021/11/03 00:38:29;;;;;;;7.53;5.60;;;;;;;6.78;82.08;95483.47;1793346;78;21096;-80
2021/11/03 00:40:54;;;;;;;6.40;4.37;;;;;;;6.82;81.60;95496.33;1799124;77;21406;-80
2021/11/03 00:43:20;;;;;;;7.33;5.17;;;;;;;6.86;81.51;95487.27;1817424;77;21083;-80
2021/11/03 00:45:46;;;;;;;4.05;3.65;;;;;;;6.85;81.51;95490.83;1797273;78;21100;-80
2021/11/03 00:48:12;;;;;;;8.63;5.62;;;;;;;6.83;81.25;95491.01;1812767;77;21031;-80
2021/11/03 00:50:39;;;;;;;4.97;3.70;;;;;;;6.81;80.89;95489.56;1775386;80;21411;-81
2021/11/03 00:53:05;;;;;;;24.30;12.37;;;;;;;6.82;80.85;95486.00;1787407;78;21130;-80
2021/11/03 00:55:31;;;;;;;18.62;7.78;;;;;;;6.82;80.63;95492.45;1787218;79;21066;-80
2021/11/03 00:57:56;;;;;;;16.75;7.08;;;;;;;6.82;80.60;95489.37;1805700;79;21022;-80
2021/11/03 01:00:23;;;;;;;5.62;3.50;;;;;;;6.81;80.73;95483.91;1747983;81;21045;-81
2021/11/03 01:02:48;;;;;;;5.55;3.58;;;;;;;6.77;80.75;95484.45;1748375;81;21040;-80
2021/11/03 01:05:17;;;;;;;3.60;2.85;;;;;;;6.79;80.93;95491.53;1791642;79;21041;-80
2021/11/03 01:07:43;;;;;;;3.85;3.27;;;;;;;6.84;80.48;95490.03;1754913;80;21481;-80
2021/11/03 01:10:10;;;;;;;6.22;4.90;;;;;;;6.93;80.11;95487.64;1773721;79;21107;-81
2021/11/03 01:12:37;;;;;;;6.20;3.75;;;;;;;7.00;80.18;95490.31;1744110;79;21098;-80
2021/11/03 01:17:30;;;;;;;5.70;3.83;;;;;;;7.09;79.76;95506.00;1739438;80;21070;-81
2021/11/03 01:19:56;;;;;;;15.05;6.53;;;;;;;7.12;79.57;95510.80;1800971;77;21417;-80
2021/11/03 01:22:22;;;;;;;5.08;3.27;;;;;;;7.17;79.45;95511.58;1792446;78;21074;-81
2021/11/03 01:24:48;;;;;;;8.43;5.20;;;;;;;7.18;79.15;95510.09;1826136;77;21047;-81
2021/11/03 01:27:14;;;;;;;12.40;5.62;;;;;;;7.22;78.90;95512.63;1779466;77;21131;-81
2021/11/03 01:29:39;;;;;;;23.15;10.43;;;;;;;7.26;79.21;95512.25;1776750;79;21091;-81
2021/11/03 01:32:06;;;;;;;6.03;4.12;;;;;;;7.28;79.36;95511.08;1807380;77;21070;-81
2021/11/03 01:34:33;;;;;;;3.83;3.25;;;;;;;7.28;78.97;95508.50;1747063;80;21102;-80
2021/11/03 01:36:58;;;;;;;4.20;3.65;;;;;;;7.31;78.86;95517.66;1759988;80;21147;-81
2021/11/03 01:39:24;;;;;;;4.65;3.55;;;;;;;7.34;78.80;95516.03;1760236;79;21114;-81
2021/11/03 01:41:50;;;;;;;4.37;3.70;;;;;;;7.35;78.78;95516.34;1725835;80;21158;-81
2021/11/03 01:44:17;;;;;;;4.15;2.77;;;;;;;7.35;78.61;95517.63;1790478;77;21493;-81
2021/11/03 01:47:04;;;;;;;4.28;3.20;;;;;;;7.32;78.93;95517.97;1810594;77;21051;-81
2021/11/03 01:49:30;;;;;;;3.27;2.55;;;;;;;7.29;78.40;95519.14;1767731;80;21142;-81
2021/11/03 01:52:04;;;;;;;6.85;5.42;;;;;;;7.29;78.28;95524.31;1782717;76;21560;-81
2021/11/03 01:54:41;;;;;;;5.37;3.92;;;;;;;7.29;78.37;95522.22;1802392;79;21073;-81
2021/11/03 01:57:10;;;;;;;3.67;3.12;;;;;;;7.27;78.46;95529.36;1742551;81;21094;-81
2021/11/03 01:59:40;;;;;;;5.35;3.87;;;;;;;7.23;78.37;95528.44;1800541;77;21177;-81
2021/11/03 02:02:07;;;;;;;4.50;2.80;;;;;;;7.21;78.48;95536.06;1794564;77;21145;-81
2021/11/03 02:04:33;;;;;;;4.47;3.67;;;;;;;7.21;78.34;95523.94;1814236;79;21079;-81
2021/11/03 02:07:00;;;;;;;7.05;4.03;;;;;;;7.20;78.33;95526.22;1802331;78;21038;-81
2021/11/03 02:09:26;;;;;;;4.03;3.62;;;;;;;7.20;78.63;95523.62;1751591;81;21126;-81
2021/11/03 02:11:52;;;;;;;5.95;4.65;;;;;;;7.19;78.72;95522.52;1803192;77;21110;-81
2021/11/03 02:14:18;;;;;;;6.53;4.92;;;;;;;7.17;78.76;95517.55;1824802;77;21031;-81
2021/11/03 02:16:47;;;;;;;4.78;3.90;;;;;;;7.15;78.59;95519.97;1825929;77;21118;-81
2021/11/03 02:19:17;;;;;;;5.28;4.05;;;;;;;7.13;78.55;95521.94;1797821;78;21047;-81
2021/11/03 02:21:51;;;;;;;5.65;4.15;;;;;;;7.09;78.59;95522.80;1800740;77;21042;-81
2021/11/03 02:24:23;;;;;;;5.70;4.22;;;;;;;7.08;78.77;95525.56;1764244;79;21055;-81
2021/11/03 02:26:49;;;;;;;5.45;4.08;;;;;;;7.05;78.82;95526.73;1752071;80;21481;-81
2021/11/03 02:29:20;;;;;;;4.50;4.03;;;;;;;7.00;78.64;95525.19;1786719;78;21015;-81
2021/11/03 02:31:53;;;;;;;4.58;4.17;;;;;;;6.99;78.82;95518.39;1775576;79;21059;-81
2021/11/03 02:34:26;;;;;;;4.70;3.35;;;;;;;6.96;78.72;95513.59;1767535;80;21055;-81
2021/11/03 02:36:59;;;;;;;4.22;3.83;;;;;;;6.94;78.75;95505.23;1771958;77;21109;-81
2021/11/03 02:39:27;;;;;;;5.67;3.70;;;;;;;6.95;78.80;95507.31;1770711;77;21508;-81
2021/11/03 02:41:53;;;;;;;5.80;4.40;;;;;;;6.92;78.84;95500.73;1757968;79;21094;-81
2021/11/03 02:44:20;;;;;;;3.90;3.25;;;;;;;6.86;78.94;95502.27;1758653;79;21083;-81
2021/11/03 02:46:46;;;;;;;3.98;3.37;;;;;;;6.87;78.68;95501.77;1794488;79;21050;-81
2021/11/03 02:49:12;;;;;;;4.03;2.92;;;;;;;6.91;78.52;95483.64;1775495;79;21449;-81
2021/11/03 02:51:40;;;;;;;4.15;2.90;;;;;;;6.92;78.23;95486.04;1810026;79;21063;-81
2021/11/03 02:54:11;;;;;;;7.83;4.20;;;;;;;6.95;78.19;95484.08;1782711;79;21575;-81
2021/11/03 02:56:42;;;;;;;3.62;2.80;;;;;;;6.95;78.10;95487.95;1749690;79;21094;-81
2021/11/03 02:59:09;;;;;;;3.37;3.08;;;;;;;6.97;77.89;95491.15;1726806;82;21122;-81
2021/11/03 03:01:41;;;;;;;7.12;5.05;;;;;;;7.00;77.84;95489.52;1807392;77;21043;-81
2021/11/03 03:04:22;;;;;;;4.70;3.08;;;;;;;6.97;77.91;95499.70;1779922;76;21053;-81
2021/11/03 03:06:48;;;;;;;4.72;3.12;;;;;;;6.92;78.06;95490.41;1810720;77;21121;-81
2021/11/03 03:09:14;;;;;;;3.83;2.52;;;;;;;6.89;77.82;95486.41;1754957;80;20990;-81
2021/11/03 03:11:43;;;;;;;3.80;3.40;;;;;;;6.88;77.78;95495.14;1815502;76;21062;-81
2021/11/03 03:14:09;;;;;;;4.05;3.30;;;;;;;6.89;77.71;95493.35;1816083;77;21441;-81
2021/11/03 03:16:36;;;;;;;4.42;3.02;;;;;;;6.92;77.66;95495.57;1788040;78;21028;-82
2021/11/03 03:19:02;;;;;;;6.83;4.37;;;;;;;6.88;77.45;95500.30;1833118;77;21051;-81
2021/11/03 03:21:28;;;;;;;5.80;3.65;;;;;;;6.89;77.26;95508.36;1818505;78;21030;-81
2021/11/03 03:23:55;;;;;;;4.97;3.42;;;;;;;6.90;77.60;95509.16;1786291;77;21118;-81
2021/11/03 03:26:22;;;;;;;6.87;4.50;;;;;;;6.88;77.55;95507.25;1806264;78;21121;-81
2021/11/03 03:28:49;;;;;;;4.05;2.87;;;;;;;6.89;77.58;95508.36;1835407;77;21089;-81
2021/11/03 03:31:15;;;;;;;3.98;3.20;;;;;;;6.89;77.46;95513.52;1798355;79;21541;-80
2021/11/03 03:33:42;;;;;;;3.92;2.90;;;;;;;6.91;77.29;95508.17;1827512;77;21410;-81
2021/11/03 03:36:08;;;;;;;4.85;4.28;;;;;;;6.89;77.61;95513.52;1805459;77;21433;-81
2021/11/03 03:38:34;;;;;;;3.92;3.20;;;;;;;6.85;77.38;95508.41;1828238;78;21000;-81
2021/11/03 03:41:00;;;;;;;5.35;3.60;;;;;;;6.86;77.54;95511.30;1782163;78;21485;-81
2021/11/03 03:43:26;;;;;;;3.90;3.50;;;;;;;6.88;77.61;95527.91;1779591;80;21083;-81
2021/11/03 03:45:52;;;;;;;4.78;4.28;;;;;;;6.86;77.66;95522.13;1749823;79;21087;-81
2021/11/03 03:48:18;;;;;;;6.12;4.30;;;;;;;6.84;77.69;95527.96;1817460;78;21336;-81
2021/11/03 03:50:44;;;;;;;5.05;4.00;;;;;;;6.81;77.95;95523.12;1817216;78;21114;-81
2021/11/03 03:53:10;;;;;;;4.08;3.62;;;;;;;6.78;78.04;95529.45;1751535;77;21047;-81
2021/11/03 03:55:38;;;;;;;6.85;4.95;;;;;;;6.79;77.84;95532.84;1831722;77;21031;-81
2021/11/03 03:58:06;;;;;;;5.15;3.85;;;;;;;6.77;77.64;95530.44;1813423;78;21167;-81
2021/11/03 04:00:31;;;;;;;4.53;4.12;;;;;;;6.78;77.69;95533.33;1813882;77;21066;-81
2021/11/03 04:02:58;;;;;;;5.87;4.67;;;;;;;6.78;77.59;95535.11;1789486;77;21094;-81
2021/11/03 04:05:24;;;;;;;4.70;3.60;;;;;;;6.77;77.68;95530.93;1793357;77;21418;-81
2021/11/03 04:07:50;;;;;;;3.77;3.37;;;;;;;6.79;77.40;95540.09;1753487;79;21409;-81
2021/11/03 04:10:17;;;;;;;5.22;3.50;;;;;;;6.82;77.27;95526.82;1780778;79;21146;-81
2021/11/03 04:12:43;;;;;;;4.72;3.20;;;;;;;6.79;77.04;95527.19;1789133;79;21102;-81
2021/11/03 04:15:09;;;;;;;2.98;2.60;;;;;;;6.78;77.26;95524.30;1755735;79;21461;-81
2021/11/03 04:17:35;;;;;;;4.00;2.90;;;;;;;6.76;77.02;95524.17;1792061;79;21071;-81
2021/11/03 04:20:01;;;;;;;2.70;2.50;;;;;;;6.77;76.86;95523.19;1809330;79;21079;-81
2021/11/03 04:22:28;;;;;;;3.20;2.80;;;;;;;6.79;76.67;95527.67;1809420;79;21123;-81
2021/11/03 04:24:53;;;;;;;2.70;2.33;;;;;;;6.79;76.33;95528.97;1808596;78;21114;-81
2021/11/03 04:27:19;;;;;;;3.02;2.40;;;;;;;6.79;76.12;95527.67;1786897;78;21148;-80
2021/11/03 04:29:45;;;;;;;3.02;2.35;;;;;;;6.81;76.21;95535.55;1788446;79;21649;-81
2021/11/03 04:32:11;;;;;;;2.65;2.37;;;;;;;6.83;76.03;95542.66;1786362;79;21134;-81
2021/11/03 04:34:36;;;;;;;8.35;6.00;;;;;;;6.85;75.99;95536.02;1793697;78;21019;-81
2021/11/03 04:37:03;;;;;;;4.33;2.65;;;;;;;6.84;76.11;95532.63;1782547;78;21022;-81
2021/11/03 04:39:28;;;;;;;3.05;2.35;;;;;;;6.81;76.08;95535.55;1766265;79;21162;-81
2021/11/03 04:41:54;;;;;;;4.85;3.17;;;;;;;6.79;76.16;95535.42;1792509;79;21127;-81
2021/11/03 04:44:20;;;;;;;4.40;2.83;;;;;;;6.80;76.36;95535.73;1787884;79;21107;-81
2021/11/03 04:46:46;;;;;;;3.72;2.90;;;;;;;6.79;76.19;95544.45;1772824;80;21051;-81
2021/11/03 04:49:11;;;;;;;6.25;3.65;;;;;;;6.78;76.39;95543.66;1794632;78;21096;-81
2021/11/03 04:51:37;;;;;;;5.25;3.33;;;;;;;6.75;76.34;95550.97;1791900;79;21147;-81
2021/11/03 04:54:03;;;;;;;5.42;3.37;;;;;;;6.71;76.46;95545.36;1723150;82;21054;-81
2021/11/03 04:56:33;;;;;;;5.47;5.08;;;;;;;6.70;76.43;95545.55;1742483;81;21055;-81
2021/11/03 04:58:59;;;;;;;4.80;4.12;;;;;;;6.73;76.62;95549.05;1791736;78;21056;-81
2021/11/03 05:01:25;;;;;;;3.60;3.20;;;;;;;6.73;76.88;95555.51;1810701;77;21058;-81
2021/11/03 05:03:52;;;;;;;4.58;3.00;;;;;;;6.73;76.79;95555.51;1800719;77;21499;-81
2021/11/03 05:06:21;;;;;;;3.08;2.70;;;;;;;6.69;76.81;95556.36;1813496;78;21016;-81
2021/11/03 05:08:48;;;;;;;7.62;5.10;;;;;;;6.70;76.85;95554.09;1792533;78;21123;-81
2021/11/03 05:11:16;;;;;;;5.08;4.10;;;;;;;6.71;76.87;95550.53;1769460;79;21090;-81
2021/11/03 05:13:41;;;;;;;3.85;3.10;;;;;;;6.73;76.90;95548.56;1712541;82;21052;-81
2021/11/03 05:16:07;;;;;;;3.85;3.15;;;;;;;6.73;76.69;95545.98;1747405;81;21081;-81
2021/11/03 05:18:33;;;;;;;3.85;2.75;;;;;;;6.73;76.57;95540.02;1778405;80;21245;-81
2021/11/03 05:20:59;;;;;;;3.17;2.67;;;;;;;6.72;76.37;95539.70;1760598;80;21058;-81
2021/11/03 05:23:27;;;;;;;3.02;2.52;;;;;;;6.73;76.28;95535.66;1787457;80;21395;-81
2021/11/03 05:25:54;;;;;;;2.85;2.40;;;;;;;6.76;76.20;95535.30;1743831;82;21063;-81
2021/11/03 05:28:20;;;;;;;3.77;2.95;;;;;;;6.76;76.15;95531.42;1774082;79;21094;-81
2021/11/03 05:30:45;;;;;;;3.25;2.30;;;;;;;6.76;75.81;95530.62;1758977;79;21011;-81
2021/11/03 05:33:11;;;;;;;2.58;2.30;;;;;;;6.75;75.69;95531.60;1782335;80;20996;-81
2021/11/03 05:35:37;;;;;;;2.20;2.00;;;;;;;6.78;75.62;95532.53;1774192;79;21235;-81
2021/11/03 05:38:03;;;;;;;3.42;2.30;;;;;;;6.83;75.51;95541.36;1775106;78;21111;-81
2021/11/03 05:40:29;;;;;;;3.30;2.52;;;;;;;6.88;75.45;95532.58;1785550;76;21102;-81
2021/11/03 05:42:55;;;;;;;2.33;1.60;;;;;;;6.90;75.46;95538.86;1811982;78;21041;-81
2021/11/03 05:45:22;;;;;;;3.55;2.92;;;;;;;6.88;75.01;95550.66;1812266;78;21075;-81
2021/11/03 05:47:48;;;;;;;2.47;1.52;;;;;;;6.88;75.10;95558.89;1783203;79;21121;-81
2021/11/03 05:50:19;;;;;;;2.40;2.20;;;;;;;6.82;74.99;95548.77;1796364;77;21086;-81
2021/11/03 05:52:44;;;;;;;5.03;4.05;;;;;;;6.89;75.11;95571.63;1813935;78;21180;-81
2021/11/03 05:55:11;;;;;;;2.35;2.15;;;;;;;6.90;75.04;95576.30;1782597;79;21426;-81
2021/11/03 05:57:37;;;;;;;2.25;2.05;;;;;;;6.91;75.08;95586.94;1750512;80;21185;-81
2021/11/03 06:00:08;;;;;;;2.50;2.25;;;;;;;6.88;75.07;95575.19;1772245;79;21057;-81
2021/11/03 06:02:34;;;;;;;2.30;2.02;;;;;;;6.87;74.85;95589.58;1735594;80;21455;-81
2021/11/03 06:05:01;;;;;;;2.12;1.92;;;;;;;6.90;75.11;95592.59;1762085;79;21509;-81
2021/11/03 06:07:27;;;;;;;2.10;1.90;;;;;;;6.92;75.00;95593.70;1746278;80;21127;-81
2021/11/03 06:09:56;;;;;;;2.50;2.30;;;;;;;6.90;75.03;95603.41;1747586;80;21079;-81
2021/11/03 06:12:22;;;;;;;2.15;1.85;;;;;;;6.89;75.13;95609.56;1707240;83;21119;-81
2021/11/03 06:14:47;;;;;;;2.87;2.52;;;;;;;6.87;75.23;95599.91;1748766;78;21058;-81
2021/11/03 06:17:13;;;;;;;2.45;1.90;;;;;;;6.85;75.37;95598.80;1741715;80;21056;-81
2021/11/03 06:19:39;;;;;;;3.08;2.27;;;;;;;6.85;75.39;95605.25;1769331;79;21134;-81
2021/11/03 06:22:04;;;;;;;2.72;2.42;;;;;;;6.85;75.56;95608.32;1772314;79;21058;-81
2021/11/03 06:24:32;;;;;;;2.92;2.58;;;;;;;6.85;75.65;95609.61;1751339;79;21024;-81
2021/11/03 06:26:57;;;;;;;4.20;3.27;;;;;;;6.85;75.64;95613.48;1820416;78;21453;-81
2021/11/03 06:29:23;;;;;;;3.35;2.80;;;;;;;6.85;75.76;95601.86;1826392;77;21030;-81
2021/11/03 06:31:50;;;;;;;2.95;2.08;;;;;;;6.87;75.74;95607.16;1764651;78;21490;-81
2021/11/03 06:34:16;;;;;;;3.17;2.75;;;;;;;6.89;75.75;95617.31;1740198;81;21021;-81
2021/11/03 06:36:42;;;;;;;2.55;2.10;;;;;;;6.89;75.70;95616.82;1831328;76;22107;-81
2021/11/03 06:39:08;;;;;;;4.33;2.92;;;;;;;6.91;75.49;95623.89;1799402;77;21123;-81
2021/11/03 06:44:00;;;;;;;3.47;2.67;;;;;;;6.96;75.49;95622.06;1784699;79;21093;-81
2021/11/03 06:46:26;;;;;;;2.87;2.60;;;;;;;7.00;75.20;95632.86;1790418;78;21513;-81
2021/11/03 06:48:52;;;;;;;4.62;3.20;;;;;;;7.06;75.23;95629.07;1735372;80;21082;-81
2021/11/03 06:51:18;;;;;;;13.35;8.10;;;;;;;7.09;75.15;95640.83;1748853;80;21067;-81
2021/11/03 06:53:44;;;;;;;7.47;4.92;;;;;;;7.10;75.13;95635.97;1753515;79;21099;-81
2021/11/03 06:56:10;;;;;;;5.58;4.20;;;;;;;7.12;75.14;95636.59;1748525;80;21458;-81
2021/11/03 06:58:37;;;;;;;5.30;4.40;;;;;;;7.14;75.14;95635.42;1745210;79;21074;-81
2021/11/03 07:01:03;;;;;;;4.35;3.40;;;;;;;7.17;75.05;95635.09;1779758;80;21071;-81
2021/11/03 07:03:32;;;;;;;3.10;2.37;;;;;;;7.20;74.96;95627.47;1769044;81;21048;-81
2021/11/03 07:05:58;;;;;;;4.37;3.05;;;;;;;7.22;74.99;95625.02;1790209;79;21119;-81
2021/11/03 07:08:25;;;;;;;2.95;2.58;;;;;;;7.25;75.00;95622.56;1808854;78;21184;-81
2021/11/03 07:10:53;;;;;;;2.77;2.20;;;;;;;7.26;74.72;95618.99;1816824;78;21046;-81
2021/11/03 07:13:19;;;;;;;2.85;1.90;;;;;;;7.28;74.83;95624.78;1807891;78;21176;-81
2021/11/03 07:15:45;;;;;;;3.05;2.30;;;;;;;7.32;74.72;95629.92;1809626;79;21684;-81
2021/11/03 07:18:12;;;;;;;3.50;3.00;;;;;;;7.36;74.47;95627.28;1806946;79;21076;-81
2021/11/03 07:20:38;;;;;;;4.15;3.02;;;;;;;7.42;74.56;95627.05;1806904;79;21207;-81
2021/11/03 07:23:04;;;;;;;5.17;3.52;;;;;;;7.43;74.54;95624.77;1817276;79;21382;-81
2021/11/03 07:25:29;;;;;;;11.78;6.92;;;;;;;7.45;74.50;95628.77;1797491;79;21067;-81
2021/11/03 07:27:56;;;;;;;7.72;4.40;;;;;;;7.47;74.58;95631.17;1806104;79;21000;-81
2021/11/03 07:30:26;;;;;;;8.78;6.37;;;;;;;7.48;74.15;95637.48;1771852;80;21044;-81
2021/11/03 07:32:51;;;;;;;7.00;3.90;;;;;;;7.56;74.12;95631.39;1774820;79;21007;-81
2021/11/03 07:35:17;;;;;;;4.37;3.05;;;;;;;7.62;74.07;95647.47;1789613;79;21406;-81
2021/11/03 07:37:43;;;;;;;6.67;4.28;;;;;;;7.67;73.68;95650.33;1785732;79;21062;-81
2021/11/03 07:40:12;;;;;;;4.40;3.27;;;;;;;7.71;73.98;95654.64;1774787;79;21044;-82
2021/11/03 07:42:38;;;;;;;4.40;3.30;;;;;;;7.74;74.06;95646.52;1767789;78;21466;-81
2021/11/03 07:45:05;;;;;;;2.67;2.10;;;;;;;7.73;74.21;95644.42;1802411;78;21087;-81
2021/11/03 07:47:30;;;;;;;2.67;2.08;;;;;;;7.75;73.96;95652.80;1734335;81;21122;-81
2021/11/03 07:49:56;;;;;;;2.90;2.65;;;;;;;7.79;73.97;95659.20;1745986;80;21383;-81
2021/11/03 07:52:22;;;;;;;2.37;2.17;;;;;;;7.84;73.96;95652.21;1705390;84;21430;-81
2021/11/03 07:54:48;;;;;;;2.75;1.80;;;;;;;7.90;73.84;95657.14;1734795;81;21139;-81
2021/11/03 07:57:13;;;;;;;2.40;1.82;;;;;;;7.95;73.68;95650.91;1737692;79;21119;-81
2021/11/03 07:59:39;;;;;;;2.98;1.95;;;;;;;8.01;73.01;95654.08;1735792;80;21084;-81
2021/11/03 08:02:05;;;;;;;2.60;1.57;;;;;;;8.08;72.95;95666.58;1750493;81;21549;-81
2021/11/03 08:04:31;;;;;;;1.98;1.40;;;;;;;8.14;72.93;95667.16;1766401;80;21059;-82
2021/11/03 08:06:57;;;;;;;1.77;1.02;;;;;;;8.22;72.03;95664.44;1801358;77;21052;-81
2021/11/03 08:09:24;;;;;;;1.40;1.25;;;;;;;8.33;72.03;95656.69;1767991;78;21133;-81
2021/11/03 08:11:51;;;;;;;2.00;0.98;;;;;;;8.43;71.88;95658.48;1779703;79;21139;-81
2021/11/03 08:14:21;;;;;;;1.67;1.25;;;;;;;8.49;71.97;95664.23;1754244;79;21142;-82
2021/11/03 08:17:00;;;;;;;1.40;1.10;;;;;;;8.54;70.96;95671.44;1776954;79;21132;-81
2021/11/03 08:19:44;;;;;;;1.52;1.15;;;;;;;8.60;71.23;95660.33;1766196;78;21084;-81
2021/11/03 08:22:10;;;;;;;1.20;1.00;;;;;;;8.67;70.84;95663.79;1780532;78;21134;-81
2021/11/03 08:24:36;;;;;;;2.20;1.00;;;;;;;8.75;71.24;95662.34;1767795;80;21167;-81
2021/11/03 08:27:02;;;;;;;1.07;0.72;;;;;;;8.82;70.45;95667.09;1737827;81;21149;-81
2021/11/03 08:29:29;;;;;;;1.55;0.80;;;;;;;8.90;69.94;95670.83;1795932;77;21062;-81
2021/11/03 08:31:57;;;;;;;1.92;1.10;;;;;;;8.99;69.26;95664.53;1769544;79;21071;-81
2021/11/03 08:34:25;;;;;;;1.47;1.00;;;;;;;9.08;69.94;95668.25;1772757;78;21159;-81
2021/11/03 08:36:53;;;;;;;3.15;2.37;;;;;;;9.16;69.20;95675.90;1778107;77;21042;-81
2021/11/03 08:39:19;;;;;;;7.17;2.87;;;;;;;9.23;69.32;95671.55;1759968;79;21057;-81
2021/11/03 08:41:45;;;;;;;3.02;1.47;;;;;;;9.30;69.64;95675.00;1754348;80;21130;-81
2021/11/03 08:44:11;;;;;;;2.70;1.25;;;;;;;9.38;69.69;95672.23;1772488;77;21447;-81
2021/11/03 08:46:38;;;;;;;2.35;1.15;;;;;;;9.46;68.98;95668.20;1790352;77;21417;-81
2021/11/03 08:49:04;;;;;;;3.10;1.90;;;;;;;9.55;68.32;95674.02;1737319;81;21053;-81
2021/11/03 08:51:33;;;;;;;1.67;0.80;;;;;;;9.65;68.95;95669.28;1796747;79;21670;-82
2021/11/03 08:54:01;;;;;;;2.22;1.40;;;;;;;9.73;67.56;95674.30;1795038;78;21432;-81
2021/11/03 08:56:28;;;;;;;1.10;0.80;;;;;;;9.83;68.08;95691.61;1761326;80;21501;-81
2021/11/03 08:58:54;;;;;;;1.35;0.80;;;;;;;9.90;67.38;95668.27;1772700;78;21078;-81
2021/11/03 09:01:21;;;;;;;2.40;0.98;;;;;;;9.93;67.44;95655.73;1761652;79;21120;-81
2021/11/03 09:03:50;;;;;;;1.35;0.60;;;;;;;9.99;66.62;95671.01;1755605;80;21072;-81
2021/11/03 09:06:15;;;;;;;0.98;0.70;;;;;;;10.06;65.73;95653.65;1754301;79;21118;-81
2021/11/03 09:08:46;;;;;;;3.90;2.75;;;;;;;10.12;66.29;95658.08;1756075;81;21514;-81
2021/11/03 09:11:11;;;;;;;3.12;1.30;;;;;;;10.19;66.05;95667.16;1802347;78;21131;-81
2021/11/03 09:13:36;;;;;;;3.98;2.45;;;;;;;10.25;65.89;95658.64;1808908;79;21280;-81
2021/11/03 09:16:03;;;;;;;2.52;1.40;;;;;;;10.30;65.80;95658.84;1827817;76;21481;-81
2021/11/03 09:18:29;;;;;;;2.85;1.50;;;;;;;10.36;66.06;95663.23;1808759;78;21473;-81
2021/11/03 09:20:55;;;;;;;1.52;1.00;;;;;;;10.42;65.34;95665.06;1795109;78;21086;-81
2021/11/03 09:23:22;;;;;;;1.35;0.80;;;;;;;10.46;65.57;95666.25;1789239;77;21401;-82
2021/11/03 09:25:50;;;;;;;2.00;1.10;;;;;;;10.48;65.45;95668.15;1810062;78;21161;-81
2021/11/03 09:28:17;;;;;;;1.62;0.72;;;;;;;10.47;65.98;95669.15;1810093;78;21141;-81
2021/11/03 09:30:43;;;;;;;2.65;1.30;;;;;;;10.49;64.88;95668.95;1784103;79;21094;-82
2021/11/03 09:33:09;;;;;;;3.33;1.90;;;;;;;10.51;65.73;95659.95;1816717;78;21021;-81
2021/11/03 09:35:39;;;;;;;1.35;1.05;;;;;;;10.58;64.61;95674.77;1806063;77;21067;-81
2021/11/03 09:38:05;;;;;;;0.98;0.60;;;;;;;10.62;64.74;95672.86;1810788;78;21469;-82
2021/11/03 09:40:43;;;;;;;1.07;0.75;;;;;;;10.69;64.49;95670.26;1818107;78;21128;-81
2021/11/03 09:43:17;;;;;;;2.72;1.10;;;;;;;10.73;64.74;95670.16;1810525;78;21121;-81
2021/11/03 09:45:43;;;;;;;1.50;0.70;;;;;;;10.80;64.84;95661.88;1802517;78;21110;-82
2021/11/03 09:50:54;;;;;;;1.45;0.72;;;;;;;10.91;65.00;95663.08;1809439;78;21053;-82
2021/11/03 09:55:52;;;;;;;1.12;0.90;;;;;;;11.03;64.80;95667.45;1784808;78;21056;-82
2021/11/03 10:01:16;;;;;;;2.10;1.05;;;;;;;11.13;63.96;95655.34;1816729;77;21018;-81
2021/11/03 10:04:02;;;;;;;1.77;1.00;;;;;;;11.18;63.74;95658.13;1814690;78;21146;-81
2021/11/03 10:06:31;;;;;;;3.90;2.80;;;;;;;11.27;63.48;95671.23;1748424;80;21052;-82
2021/11/03 10:08:57;;;;;;;2.80;1.72;;;;;;;11.27;62.13;95655.63;1772957;80;21066;-81
2021/11/03 10:11:31;;;;;;;1.32;0.93;;;;;;;11.28;61.86;95648.13;1770504;80;21111;-81
2021/11/03 10:13:58;;;;;;;1.57;0.90;;;;;;;11.28;60.18;95639.52;1772171;80;21083;-81
2021/11/03 10:19:16;;;;;;;2.20;1.35;;;;;;;11.29;61.62;95643.22;1754735;79;21084;-82
2021/11/03 10:21:52;;;;;;;3.00;1.60;;;;;;;11.34;61.12;95643.89;1751769;81;21072;-82
2021/11/03 10:24:23;;;;;;;1.60;1.50;;;;;;;11.39;61.04;95645.41;1784577;79;21170;-82
2021/11/03 10:27:13;;;;;;;1.20;0.75;;;;;;;11.43;60.63;95638.28;1810186;78;21095;-82
2021/11/03 10:29:52;;;;;;;2.45;0.82;;;;;;;11.45;61.07;95635.47;1782616;79;21064;-82
2021/11/03 10:35:37;;;;;;;2.05;1.10;;;;;;;11.48;61.07;95649.87;1768670;79;21480;-81
2021/11/03 10:38:19;;;;;;;4.05;1.90;;;;;;;11.51;60.13;95639.84;1812865;78;21081;-82
2021/11/03 10:41:05;;;;;;;1.62;0.70;;;;;;;11.54;60.93;95630.83;1757295;79;21592;-82
2021/11/03 10:43:35;;;;;;;1.35;0.60;;;;;;;11.58;59.85;95622.42;1761126;80;21073;-81
2021/11/03 10:46:27;;;;;;;1.77;0.90;;;;;;;11.62;60.40;95626.70;1805715;78;21201;-81
2021/11/03 10:49:15;;;;;;;0.70;0.40;;;;;;;11.68;61.15;95624.06;1761249;79;21028;-81
2021/11/03 10:51:41;;;;;;;1.45;0.70;;;;;;;11.73;61.01;95619.56;1723524;81;21512;-82
2021/11/03 10:54:18;;;;;;;4.28;2.10;;;;;;;11.75;59.79;95626.66;1823191;77;21083;-81
2021/11/03 10:57:01;;;;;;;2.05;0.93;;;;;;;11.81;60.80;95625.05;1787729;77;21086;-82
2021/11/03 10:59:30;;;;;;;1.50;1.25;;;;;;;11.86;60.00;95620.81;1784244;79;21109;-82
2021/11/03 11:02:17;;;;;;;1.12;0.60;;;;;;;11.87;59.21;95617.20;1792160;78;21493;-82
2021/11/03 11:04:43;;;;;;;0.93;0.57;;;;;;;11.86;59.37;95613.00;1816789;78;20994;-82
2021/11/03 11:07:38;;;;;;;1.02;0.60;;;;;;;11.87;59.82;95604.19;1787207;78;21222;-81
2021/11/03 11:10:40;;;;;;;0.93;0.70;;;;;;;11.90;59.22;95601.19;1793039;77;20980;-82
2021/11/03 11:13:23;;;;;;;1.35;0.68;;;;;;;11.95;58.50;95596.14;1816661;77;21069;-82
2021/11/03 11:16:13;;;;;;;1.40;0.72;;;;;;;12.01;59.25;95606.22;1752615;77;21109;-82
2021/11/03 11:21:42;;;;;;;1.98;1.47;;;;;;;11.98;59.47;95590.52;1787659;77;21161;-82
2021/11/03 11:24:30;;;;;;;1.40;0.50;;;;;;;11.98;58.84;95589.22;1796427;76;21129;-82
2021/11/03 11:27:16;;;;;;;1.15;0.70;;;;;;;11.99;59.75;95591.31;1783837;79;21478;-82
2021/11/03 11:32:53;;;;;;;1.25;0.80;;;;;;;12.14;59.87;95588.42;1773401;77;21678;-82
2021/11/03 11:35:39;;;;;;;1.50;1.12;;;;;;;12.21;59.47;95599.10;1753951;82;21141;-82
2021/11/03 11:38:13;;;;;;;1.07;0.70;;;;;;;12.33;58.62;95585.67;1786756;76;21103;-82
2021/11/03 11:40:55;;;;;;;2.47;0.88;;;;;;;12.43;58.63;95580.00;1830263;77;21107;-82
2021/11/03 11:43:36;;;;;;;1.55;1.02;;;;;;;12.38;59.10;95585.56;1782320;79;21098;-82
2021/11/03 11:46:28;;;;;;;3.65;1.35;;;;;;;12.30;58.49;95580.09;1792188;77;21102;-82
2021/11/03 11:48:57;;;;;;;1.42;0.78;;;;;;;12.33;59.07;95588.78;1764314;80;21082;-81
2021/11/03 11:51:33;;;;;;;1.95;0.80;;;;;;;12.41;58.48;95576.81;1795619;77;21442;-82
2021/11/03 11:54:06;;;;;;;1.50;0.42;;;;;;;12.40;58.58;95573.92;1808248;76;21043;-82
2021/11/03 11:56:36;;;;;;;2.58;1.20;;;;;;;12.45;58.96;95574.07;1754584;79;21059;-82
2021/11/03 11:59:07;;;;;;;1.52;0.80;;;;;;;12.45;58.49;95573.27;1743838;79;21135;-82
2021/11/03 12:01:51;;;;;;;1.15;0.50;;;;;;;12.48;58.78;95568.42;1762045;78;21099;-82
2021/11/03 12:04:25;;;;;;;2.25;0.70;;;;;;;12.56;57.03;95570.78;1777165;78;21134;-82
2021/11/03 12:06:57;;;;;;;1.95;0.85;;;;;;;12.58;58.92;95568.76;1824020;78;21047;-82
2021/11/03 12:09:50;;;;;;;1.98;1.10;;;;;;;12.65;57.19;95555.66;1766382;79;21195;-81
2021/11/03 12:12:21;;;;;;;1.57;1.02;;;;;;;12.75;59.24;95578.13;1779059;77;21066;-82